sensor_id;sensor_type;location;lat;lon;timestamp;pressure;altitude;pressure_sealevel;temperature;humidity
52923;BME280;38796;42.702;23.306;2023-02-12T00:01:21;96263.13;;;-0.45;53.42
52923;BME280;38796;42.702;23.306;2023-02-12T00:03:20;96257.56;;;-0.62;53.67
52923;BME280;38796;42.702;23.306;2023-02-12T00:05:18;96261.22;;;-0.69;53.68
52923;BME280;38796;42.702;23.306;2023-02-12T00:07:17;96260.94;;;-0.90;54.14
52923;BME280;38796;42.702;23.306;2023-02-12T00:09:17;96264.03;;;-1.10;54.84
52923;BME280;38796;42.702;23.306;2023-02-12T00:11:20;96267.94;;;-1.28;54.87
52923;BME280;38796;42.702;23.306;2023-02-12T00:13:19;96270.75;;;-1.37;55.45
52923;BME280;38796;42.702;23.306;2023-02-12T00:15:18;96270.97;;;-1.46;55.75
52923;BME280;38796;42.702;23.306;2023-02-12T00:17:16;96272.72;;;-1.48;55.83
52923;BME280;38796;42.702;23.306;2023-02-12T00:19:14;96265.09;;;-1.53;56.45
52923;BME280;38796;42.702;23.306;2023-02-12T00:21:13;96268.69;;;-1.58;56.06
52923;BME280;38796;42.702;23.306;2023-02-12T00:23:13;96269.69;;;-1.64;56.42
52923;BME280;38796;42.702;23.306;2023-02-12T00:25:13;96266.47;;;-1.74;57.00
52923;BME280;38796;42.702;23.306;2023-02-12T00:27:12;96264.94;;;-1.82;57.02
52923;BME280;38796;42.702;23.306;2023-02-12T00:29:11;96265.06;;;-1.87;57.17
52923;BME280;38796;42.702;23.306;2023-02-12T00:31:12;96269.47;;;-1.92;57.76
52923;BME280;38796;42.702;23.306;2023-02-12T00:33:11;96264.88;;;-1.79;57.63
52923;BME280;38796;42.702;23.306;2023-02-12T00:35:09;96248.38;;;-1.72;57.08
52923;BME280;38796;42.702;23.306;2023-02-12T00:37:08;96247.53;;;-1.74;57.04
52923;BME280;38796;42.702;23.306;2023-02-12T00:39:06;96241.72;;;-1.82;57.33
52923;BME280;38796;42.702;23.306;2023-02-12T00:41:07;96240.81;;;-1.81;56.92
52923;BME280;38796;42.702;23.306;2023-02-12T00:43:06;96244.41;;;-1.87;57.15
52923;BME280;38796;42.702;23.306;2023-02-12T00:45:04;96248.78;;;-1.90;57.46
52923;BME280;38796;42.702;23.306;2023-02-12T00:47:03;96249.81;;;-1.98;57.54
52923;BME280;38796;42.702;23.306;2023-02-12T00:49:02;96248.34;;;-2.09;58.01
52923;BME280;38796;42.702;23.306;2023-02-12T00:51:00;96232.84;;;-2.08;58.22
52923;BME280;38796;42.702;23.306;2023-02-12T00:52:59;96224.03;;;-1.99;58.17
52923;BME280;38796;42.702;23.306;2023-02-12T00:54:58;96223.06;;;-1.94;57.98
52923;BME280;38796;42.702;23.306;2023-02-12T00:56:58;96225.69;;;-1.97;57.71
52923;BME280;38796;42.702;23.306;2023-02-12T00:58:58;96221.00;;;-1.81;57.19
52923;BME280;38796;42.702;23.306;2023-02-12T01:00:56;96212.53;;;-1.52;56.96
52923;BME280;38796;42.702;23.306;2023-02-12T01:02:55;96209.19;;;-1.55;56.51
52923;BME280;38796;42.702;23.306;2023-02-12T01:04:53;96214.56;;;-1.63;57.23
52923;BME280;38796;42.702;23.306;2023-02-12T01:06:52;96216.63;;;-1.77;57.33
52923;BME280;38796;42.702;23.306;2023-02-12T01:08:51;96221.19;;;-1.88;57.72
52923;BME280;38796;42.702;23.306;2023-02-12T01:10:54;96231.59;;;-1.91;57.93
52923;BME280;38796;42.702;23.306;2023-02-12T01:12:55;96223.84;;;-1.91;58.16
52923;BME280;38796;42.702;23.306;2023-02-12T01:14:54;96235.06;;;-1.92;57.94
52923;BME280;38796;42.702;23.306;2023-02-12T01:16:52;96234.03;;;-1.85;57.84
52923;BME280;38796;42.702;23.306;2023-02-12T01:18:51;96235.63;;;-1.80;58.31
52923;BME280;38796;42.702;23.306;2023-02-12T01:20:52;96232.88;;;-1.74;58.06
52923;BME280;38796;42.702;23.306;2023-02-12T01:22:52;96236.22;;;-1.68;57.55
52923;BME280;38796;42.702;23.306;2023-02-12T01:24:50;96236.28;;;-1.72;57.66
52923;BME280;38796;42.702;23.306;2023-02-12T01:26:49;96233.00;;;-1.77;58.21
52923;BME280;38796;42.702;23.306;2023-02-12T01:28:51;96233.06;;;-1.80;58.43
52923;BME280;38796;42.702;23.306;2023-02-12T01:30:49;96240.81;;;-1.81;58.11
52923;BME280;38796;42.702;23.306;2023-02-12T01:32:47;96235.72;;;-1.83;58.62
52923;BME280;38796;42.702;23.306;2023-02-12T01:34:45;96231.44;;;-1.85;58.47
52923;BME280;38796;42.702;23.306;2023-02-12T01:36:44;96235.00;;;-1.89;58.54
52923;BME280;38796;42.702;23.306;2023-02-12T01:38:42;96223.00;;;-1.92;59.08
52923;BME280;38796;42.702;23.306;2023-02-12T01:40:41;96217.81;;;-1.90;59.51
52923;BME280;38796;42.702;23.306;2023-02-12T01:42:40;96221.19;;;-1.88;59.53
52923;BME280;38796;42.702;23.306;2023-02-12T01:44:42;96217.75;;;-1.87;59.29
52923;BME280;38796;42.702;23.306;2023-02-12T01:46:42;96204.88;;;-1.89;59.76
52923;BME280;38796;42.702;23.306;2023-02-12T01:48:44;96196.34;;;-1.92;59.74
52923;BME280;38796;42.702;23.306;2023-02-12T01:50:45;96204.22;;;-1.97;60.03
52923;BME280;38796;42.702;23.306;2023-02-12T01:52:46;96192.25;;;-2.01;60.28
52923;BME280;38796;42.702;23.306;2023-02-12T01:54:46;96193.16;;;-2.04;60.04
52923;BME280;38796;42.702;23.306;2023-02-12T01:56:45;96192.44;;;-2.09;60.72
52923;BME280;38796;42.702;23.306;2023-02-12T01:58:46;96202.78;;;-2.09;60.60
52923;BME280;38796;42.702;23.306;2023-02-12T02:00:48;96208.06;;;-2.15;61.12
52923;BME280;38796;42.702;23.306;2023-02-12T02:02:50;96204.72;;;-2.20;61.36
52923;BME280;38796;42.702;23.306;2023-02-12T02:04:53;96203.56;;;-2.07;62.21
52923;BME280;38796;42.702;23.306;2023-02-12T02:06:56;96216.50;;;-2.08;61.41
52923;BME280;38796;42.702;23.306;2023-02-12T02:08:55;96215.88;;;-2.18;61.36
52923;BME280;38796;42.702;23.306;2023-02-12T02:10:54;96222.16;;;-2.31;62.35
52923;BME280;38796;42.702;23.306;2023-02-12T02:12:52;96214.66;;;-2.40;62.84
52923;BME280;38796;42.702;23.306;2023-02-12T02:15:08;96217.22;;;-2.40;63.58
52923;BME280;38796;42.702;23.306;2023-02-12T02:17:17;96212.97;;;-2.42;63.67
52923;BME280;38796;42.702;23.306;2023-02-12T02:19:23;96212.19;;;-2.47;64.16
52923;BME280;38796;42.702;23.306;2023-02-12T02:21:44;96216.56;;;-2.50;64.04
52923;BME280;38796;42.702;23.306;2023-02-12T02:24:03;96206.47;;;-2.61;65.05
52923;BME280;38796;42.702;23.306;2023-02-12T02:26:31;96208.34;;;-2.68;65.15
52923;BME280;38796;42.702;23.306;2023-02-12T02:28:45;96206.81;;;-2.76;65.72
52923;BME280;38796;42.702;23.306;2023-02-12T02:30:54;96201.78;;;-2.82;66.20
52923;BME280;38796;42.702;23.306;2023-02-12T02:33:01;96197.44;;;-2.80;66.39
52923;BME280;38796;42.702;23.306;2023-02-12T02:35:10;96201.75;;;-2.81;66.68
52923;BME280;38796;42.702;23.306;2023-02-12T02:37:14;96198.44;;;-2.87;67.00
52923;BME280;38796;42.702;23.306;2023-02-12T02:39:18;96194.25;;;-2.92;67.37
52923;BME280;38796;42.702;23.306;2023-02-12T02:41:25;96204.34;;;-2.82;67.08
52923;BME280;38796;42.702;23.306;2023-02-12T02:43:28;96205.13;;;-2.77;66.97
52923;BME280;38796;42.702;23.306;2023-02-12T02:45:33;96211.91;;;-2.75;66.40
52923;BME280;38796;42.702;23.306;2023-02-12T02:47:38;96215.28;;;-2.71;66.56
52923;BME280;38796;42.702;23.306;2023-02-12T02:49:40;96210.84;;;-2.64;66.67
52923;BME280;38796;42.702;23.306;2023-02-12T02:51:42;96210.75;;;-2.60;66.59
52923;BME280;38796;42.702;23.306;2023-02-12T02:53:45;96214.16;;;-2.58;66.07
52923;BME280;38796;42.702;23.306;2023-02-12T02:55:48;96213.19;;;-2.52;66.10
52923;BME280;38796;42.702;23.306;2023-02-12T02:57:52;96217.34;;;-2.47;65.55
52923;BME280;38796;42.702;23.306;2023-02-12T02:59:54;96213.97;;;-2.49;65.83
52923;BME280;38796;42.702;23.306;2023-02-12T03:01:56;96214.03;;;-2.52;65.97
52923;BME280;38796;42.702;23.306;2023-02-12T03:04:01;96211.41;;;-2.50;65.75
52923;BME280;38796;42.702;23.306;2023-02-12T03:06:06;96212.97;;;-2.43;65.84
52923;BME280;38796;42.702;23.306;2023-02-12T03:08:09;96214.66;;;-2.42;65.79
52923;BME280;38796;42.702;23.306;2023-02-12T03:10:13;96218.03;;;-2.38;65.58
52923;BME280;38796;42.702;23.306;2023-02-12T03:12:15;96212.09;;;-2.42;65.74
52923;BME280;38796;42.702;23.306;2023-02-12T03:14:17;96223.28;;;-2.43;66.29
52923;BME280;38796;42.702;23.306;2023-02-12T03:16:21;96219.03;;;-2.44;65.68
52923;BME280;38796;42.702;23.306;2023-02-12T03:18:23;96210.44;;;-2.45;65.55
52923;BME280;38796;42.702;23.306;2023-02-12T03:20:27;96208.66;;;-2.41;65.95
52923;BME280;38796;42.702;23.306;2023-02-12T03:22:28;96202.66;;;-2.43;66.02
52923;BME280;38796;42.702;23.306;2023-02-12T03:24:32;96213.81;;;-2.43;65.86
52923;BME280;38796;42.702;23.306;2023-02-12T03:26:35;96205.22;;;-2.42;66.07
52923;BME280;38796;42.702;23.306;2023-02-12T03:28:37;96199.06;;;-2.34;66.15
52923;BME280;38796;42.702;23.306;2023-02-12T03:30:41;96198.94;;;-2.31;65.95
52923;BME280;38796;42.702;23.306;2023-02-12T03:32:46;96185.97;;;-2.27;65.58
52923;BME280;38796;42.702;23.306;2023-02-12T03:34:56;96194.50;;;-2.25;65.39
52923;BME280;38796;42.702;23.306;2023-02-12T03:37:04;96191.91;;;-2.23;65.20
52923;BME280;38796;42.702;23.306;2023-02-12T03:39:09;96185.88;;;-2.22;64.98
52923;BME280;38796;42.702;23.306;2023-02-12T03:41:14;96184.84;;;-2.15;64.90
52923;BME280;38796;42.702;23.306;2023-02-12T03:43:21;96195.88;;;-2.10;64.69
52923;BME280;38796;42.702;23.306;2023-02-12T03:45:29;96194.09;;;-2.06;64.68
52923;BME280;38796;42.702;23.306;2023-02-12T03:47:39;96185.38;;;-2.02;63.96
52923;BME280;38796;42.702;23.306;2023-02-12T03:49:47;96178.41;;;-1.97;64.38
52923;BME280;38796;42.702;23.306;2023-02-12T03:51:47;96187.81;;;-1.96;63.99
52923;BME280;38796;42.702;23.306;2023-02-12T03:53:49;96182.59;;;-1.93;63.95
52923;BME280;38796;42.702;23.306;2023-02-12T03:55:52;96187.63;;;-1.87;64.34
52923;BME280;38796;42.702;23.306;2023-02-12T03:57:57;96184.19;;;-1.87;63.97
52923;BME280;38796;42.702;23.306;2023-02-12T03:59:58;96183.31;;;-1.86;64.13
52923;BME280;38796;42.702;23.306;2023-02-12T04:02:09;96188.41;;;-1.85;64.23
52923;BME280;38796;42.702;23.306;2023-02-12T04:04:08;96186.72;;;-1.86;63.92
52923;BME280;38796;42.702;23.306;2023-02-12T04:06:18;96184.88;;;-1.81;63.90
52923;BME280;38796;42.702;23.306;2023-02-12T04:08:17;96183.09;;;-1.79;63.64
52923;BME280;38796;42.702;23.306;2023-02-12T04:10:17;96182.22;;;-1.78;63.79
52923;BME280;38796;42.702;23.306;2023-02-12T04:12:33;96184.78;;;-1.76;63.74
52923;BME280;38796;42.702;23.306;2023-02-12T04:14:42;96192.47;;;-1.75;63.75
52923;BME280;38796;42.702;23.306;2023-02-12T04:16:44;96188.22;;;-1.77;63.80
52923;BME280;38796;42.702;23.306;2023-02-12T04:18:47;96198.53;;;-1.77;63.83
52923;BME280;38796;42.702;23.306;2023-02-12T04:20:56;96205.31;;;-1.73;63.52
52923;BME280;38796;42.702;23.306;2023-02-12T04:23:06;96210.44;;;-1.70;63.45
52923;BME280;38796;42.702;23.306;2023-02-12T04:25:18;96199.31;;;-1.74;63.48
52923;BME280;38796;42.702;23.306;2023-02-12T04:27:22;96203.50;;;-1.68;63.28
52923;BME280;38796;42.702;23.306;2023-02-12T04:29:27;96206.88;;;-1.66;63.23
52923;BME280;38796;42.702;23.306;2023-02-12T04:31:32;96200.03;;;-1.67;63.44
52923;BME280;38796;42.702;23.306;2023-02-12T04:33:34;96209.38;;;-1.61;63.53
52923;BME280;38796;42.702;23.306;2023-02-12T04:35:41;96211.97;;;-1.63;63.87
52923;BME280;38796;42.702;23.306;2023-02-12T04:37:43;96212.91;;;-1.65;63.81
52923;BME280;38796;42.702;23.306;2023-02-12T04:39:43;96210.22;;;-1.61;63.75
52923;BME280;38796;42.702;23.306;2023-02-12T04:41:43;96199.06;;;-1.63;63.75
52923;BME280;38796;42.702;23.306;2023-02-12T04:43:41;96202.53;;;-1.64;64.30
52923;BME280;38796;42.702;23.306;2023-02-12T04:45:40;96208.59;;;-1.65;63.80
52923;BME280;38796;42.702;23.306;2023-02-12T04:47:38;96217.97;;;-1.62;63.74
52923;BME280;38796;42.702;23.306;2023-02-12T04:49:36;96213.72;;;-1.63;63.88
52923;BME280;38796;42.702;23.306;2023-02-12T04:51:35;96209.38;;;-1.61;64.19
52923;BME280;38796;42.702;23.306;2023-02-12T04:53:33;96211.06;;;-1.60;64.18
52923;BME280;38796;42.702;23.306;2023-02-12T04:55:31;96217.13;;;-1.63;64.09
52923;BME280;38796;42.702;23.306;2023-02-12T04:57:30;96221.44;;;-1.63;64.80
52923;BME280;38796;42.702;23.306;2023-02-12T04:59:29;96226.22;;;-1.48;64.24
52923;BME280;38796;42.702;23.306;2023-02-12T05:01:27;96221.75;;;-1.41;64.22
52923;BME280;38796;42.702;23.306;2023-02-12T05:03:27;96213.94;;;-1.38;63.62
52923;BME280;38796;42.702;23.306;2023-02-12T05:05:25;96217.28;;;-1.35;63.90
52923;BME280;38796;42.702;23.306;2023-02-12T05:07:23;96218.97;;;-1.34;64.19
52923;BME280;38796;42.702;23.306;2023-02-12T05:09:22;96223.16;;;-1.28;63.56
52923;BME280;38796;42.702;23.306;2023-02-12T05:11:20;96224.53;;;-1.15;63.21
52923;BME280;38796;42.702;23.306;2023-02-12T05:13:20;96219.94;;;-1.05;62.75
52923;BME280;38796;42.702;23.306;2023-02-12T05:15:18;96222.38;;;-0.99;62.38
52923;BME280;38796;42.702;23.306;2023-02-12T05:17:17;96221.19;;;-0.87;62.33
52923;BME280;38796;42.702;23.306;2023-02-12T05:19:15;96220.69;;;-0.69;61.59
52923;BME280;38796;42.702;23.306;2023-02-12T05:21:13;96226.50;;;-0.61;61.35
52923;BME280;38796;42.702;23.306;2023-02-12T05:23:12;96232.22;;;-0.50;61.24
52923;BME280;38796;42.702;23.306;2023-02-12T05:25:10;96224.22;;;-0.42;60.94
52923;BME280;38796;42.702;23.306;2023-02-12T05:27:08;96234.19;;;-0.28;60.32
52923;BME280;38796;42.702;23.306;2023-02-12T05:29:08;96237.75;;;-0.32;60.31
52923;BME280;38796;42.702;23.306;2023-02-12T05:31:08;96232.78;;;-0.40;60.30
52923;BME280;38796;42.702;23.306;2023-02-12T05:33:06;96235.94;;;-0.29;59.91
52923;BME280;38796;42.702;23.306;2023-02-12T05:35:06;96244.22;;;-0.17;59.73
52923;BME280;38796;42.702;23.306;2023-02-12T05:37:04;96241.72;;;0.08;59.51
52923;BME280;38796;42.702;23.306;2023-02-12T05:39:03;96248.53;;;0.10;59.61
52923;BME280;38796;42.702;23.306;2023-02-12T05:41:02;96243.00;;;-0.06;59.61
52923;BME280;38796;42.702;23.306;2023-02-12T05:43:01;96247.91;;;-0.26;61.00
52923;BME280;38796;42.702;23.306;2023-02-12T05:45:00;96257.69;;;-0.36;61.45
52923;BME280;38796;42.702;23.306;2023-02-12T05:46:59;96256.06;;;-0.40;62.45
52923;BME280;38796;42.702;23.306;2023-02-12T05:48:57;96262.13;;;-0.39;62.68
52923;BME280;38796;42.702;23.306;2023-02-12T05:51:01;96267.09;;;-0.33;63.43
52923;BME280;38796;42.702;23.306;2023-02-12T05:52:59;96262.72;;;-0.31;63.46
52923;BME280;38796;42.702;23.306;2023-02-12T05:54:57;96266.34;;;-0.37;63.93
52923;BME280;38796;42.702;23.306;2023-02-12T05:56:55;96263.75;;;-0.37;64.59
52923;BME280;38796;42.702;23.306;2023-02-12T05:58:56;96266.41;;;-0.40;65.49
52923;BME280;38796;42.702;23.306;2023-02-12T06:00:56;96274.22;;;-0.41;65.86
52923;BME280;38796;42.702;23.306;2023-02-12T06:02:54;96273.06;;;-0.61;67.88
52923;BME280;38796;42.702;23.306;2023-02-12T06:04:52;96273.78;;;-0.56;68.45
52923;BME280;38796;42.702;23.306;2023-02-12T06:06:52;96273.06;;;-0.61;68.80
52923;BME280;38796;42.702;23.306;2023-02-12T06:08:51;96273.47;;;-0.76;69.29
52923;BME280;38796;42.702;23.306;2023-02-12T06:10:50;96275.00;;;-0.69;69.99
52923;BME280;38796;42.702;23.306;2023-02-12T06:12:52;96275.09;;;-0.72;70.34
52923;BME280;38796;42.702;23.306;2023-02-12T06:14:51;96267.38;;;-0.74;70.36
52923;BME280;38796;42.702;23.306;2023-02-12T06:16:50;96280.16;;;-0.67;70.54
52923;BME280;38796;42.702;23.306;2023-02-12T06:18:49;96282.81;;;-0.39;70.27
52923;BME280;38796;42.702;23.306;2023-02-12T06:20:48;96283.75;;;-0.43;70.66
52923;BME280;38796;42.702;23.306;2023-02-12T06:22:46;96281.94;;;-0.40;71.42
52923;BME280;38796;42.702;23.306;2023-02-12T06:24:44;96284.66;;;-0.43;71.78
52923;BME280;38796;42.702;23.306;2023-02-12T06:26:43;96283.06;;;-0.49;72.57
52923;BME280;38796;42.702;23.306;2023-02-12T06:28:41;96290.44;;;-0.35;73.79
52923;BME280;38796;42.702;23.306;2023-02-12T06:30:39;96282.19;;;-0.18;73.55
52923;BME280;38796;42.702;23.306;2023-02-12T06:32:39;96290.06;;;-0.21;73.79
52923;BME280;38796;42.702;23.306;2023-02-12T06:34:37;96287.72;;;-0.30;74.61
52923;BME280;38796;42.702;23.306;2023-02-12T06:36:37;96284.59;;;-0.41;75.39
52923;BME280;38796;42.702;23.306;2023-02-12T06:38:35;96295.19;;;-0.51;76.56
52923;BME280;38796;42.702;23.306;2023-02-12T06:40:33;96289.13;;;-0.50;76.68
52923;BME280;38796;42.702;23.306;2023-02-12T06:42:32;96280.59;;;-0.53;77.69
52923;BME280;38796;42.702;23.306;2023-02-12T06:44:30;96290.97;;;-0.53;77.81
52923;BME280;38796;42.702;23.306;2023-02-12T06:46:28;96277.06;;;-0.51;78.34
52923;BME280;38796;42.702;23.306;2023-02-12T06:48:28;96282.06;;;-0.43;78.45
52923;BME280;38796;42.702;23.306;2023-02-12T06:50:27;96282.22;;;-0.49;78.84
52923;BME280;38796;42.702;23.306;2023-02-12T06:52:26;96283.00;;;-0.47;79.36
52923;BME280;38796;42.702;23.306;2023-02-12T06:54:25;96280.09;;;-0.35;79.30
52923;BME280;38796;42.702;23.306;2023-02-12T06:56:24;96282.44;;;-0.27;79.49
52923;BME280;38796;42.702;23.306;2023-02-12T06:58:23;96291.03;;;-0.25;78.94
52923;BME280;38796;42.702;23.306;2023-02-12T07:00:22;96287.72;;;-0.30;79.58
52923;BME280;38796;42.702;23.306;2023-02-12T07:02:20;96292.41;;;-0.43;79.38
52923;BME280;38796;42.702;23.306;2023-02-12T07:04:20;96293.53;;;-0.53;80.24
52923;BME280;38796;42.702;23.306;2023-02-12T07:06:19;96293.72;;;-0.59;80.58
52923;BME280;38796;42.702;23.306;2023-02-12T07:08:17;96293.75;;;-0.61;80.49
52923;BME280;38796;42.702;23.306;2023-02-12T07:10:16;96295.31;;;-0.55;80.65
52923;BME280;38796;42.702;23.306;2023-02-12T07:12:15;96291.97;;;-0.59;80.73
52923;BME280;38796;42.702;23.306;2023-02-12T07:14:14;96290.97;;;-0.55;80.60
52923;BME280;38796;42.702;23.306;2023-02-12T07:16:14;96293.53;;;-0.53;80.56
52923;BME280;38796;42.702;23.306;2023-02-12T07:18:13;96294.16;;;-0.45;80.17
52923;BME280;38796;42.702;23.306;2023-02-12T07:20:13;96298.59;;;-0.49;79.82
52923;BME280;38796;42.702;23.306;2023-02-12T07:22:11;96295.28;;;-0.54;80.44
52923;BME280;38796;42.702;23.306;2023-02-12T07:24:10;96307.31;;;-0.53;80.33
52923;BME280;38796;42.702;23.306;2023-02-12T07:26:11;96301.00;;;-0.42;80.08
52923;BME280;38796;42.702;23.306;2023-02-12T07:28:10;96296.63;;;-0.40;79.56
52923;BME280;38796;42.702;23.306;2023-02-12T07:30:08;96295.94;;;-0.47;79.95
52923;BME280;38796;42.702;23.306;2023-02-12T07:32:07;96302.84;;;-0.47;79.91
52923;BME280;38796;42.702;23.306;2023-02-12T07:34:05;96304.75;;;-0.53;79.93
52923;BME280;38796;42.702;23.306;2023-02-12T07:36:07;96296.13;;;-0.53;79.94
52923;BME280;38796;42.702;23.306;2023-02-12T07:38:06;96296.06;;;-0.50;80.04
52923;BME280;38796;42.702;23.306;2023-02-12T07:40:05;96303.75;;;-0.49;79.72
52923;BME280;38796;42.702;23.306;2023-02-12T07:42:04;96303.84;;;-0.52;79.82
52923;BME280;38796;42.702;23.306;2023-02-12T07:44:06;96313.47;;;-0.57;79.97
52923;BME280;38796;42.702;23.306;2023-02-12T07:46:10;96319.53;;;-0.58;80.42
52923;BME280;38796;42.702;23.306;2023-02-12T07:48:09;96320.59;;;-0.65;80.42
52923;BME280;38796;42.702;23.306;2023-02-12T07:50:09;96329.41;;;-0.72;80.83
52923;BME280;38796;42.702;23.306;2023-02-12T07:52:09;96324.97;;;-0.67;80.64
52923;BME280;38796;42.702;23.306;2023-02-12T07:54:09;96314.47;;;-0.62;80.48
52923;BME280;38796;42.702;23.306;2023-02-12T07:56:09;96315.38;;;-0.63;80.65
52923;BME280;38796;42.702;23.306;2023-02-12T07:58:08;96315.44;;;-0.65;80.68
52923;BME280;38796;42.702;23.306;2023-02-12T08:00:07;96326.66;;;-0.66;81.38
52923;BME280;38796;42.702;23.306;2023-02-12T08:02:09;96321.56;;;-0.69;81.22
52923;BME280;38796;42.702;23.306;2023-02-12T08:04:09;96318.81;;;-0.63;81.56
52923;BME280;38796;42.702;23.306;2023-02-12T08:06:10;96311.03;;;-0.61;81.42
52923;BME280;38796;42.702;23.306;2023-02-12T08:08:10;96320.56;;;-0.63;81.31
52923;BME280;38796;42.702;23.306;2023-02-12T08:10:09;96310.97;;;-0.60;81.83
52923;BME280;38796;42.702;23.306;2023-02-12T08:12:07;96315.16;;;-0.56;81.61
52923;BME280;38796;42.702;23.306;2023-02-12T08:14:06;96311.75;;;-0.58;81.86
52923;BME280;38796;42.702;23.306;2023-02-12T08:16:06;96310.69;;;-0.51;81.41
52923;BME280;38796;42.702;23.306;2023-02-12T08:18:05;96315.03;;;-0.51;81.82
52923;BME280;38796;42.702;23.306;2023-02-12T08:20:04;96310.69;;;-0.49;81.39
52923;BME280;38796;42.702;23.306;2023-02-12T08:22:02;96315.56;;;-0.38;81.27
52923;BME280;38796;42.702;23.306;2023-02-12T08:24:04;96312.97;;;-0.38;81.06
52923;BME280;38796;42.702;23.306;2023-02-12T08:26:07;96315.25;;;-0.28;81.28
52923;BME280;38796;42.702;23.306;2023-02-12T08:28:06;96328.97;;;-0.24;80.63
52923;BME280;38796;42.702;23.306;2023-02-12T08:30:05;96322.97;;;-0.26;80.67
52923;BME280;38796;42.702;23.306;2023-02-12T08:32:03;96333.97;;;-0.18;80.69
52923;BME280;38796;42.702;23.306;2023-02-12T08:34:06;96338.88;;;-0.09;80.32
52923;BME280;38796;42.702;23.306;2023-02-12T08:36:07;96345.09;;;-0.14;80.33
52923;BME280;38796;42.702;23.306;2023-02-12T08:38:06;96342.38;;;-0.11;80.68
52923;BME280;38796;42.702;23.306;2023-02-12T08:40:07;96336.44;;;-0.15;80.28
52923;BME280;38796;42.702;23.306;2023-02-12T08:42:05;96341.44;;;-0.07;80.48
52923;BME280;38796;42.702;23.306;2023-02-12T08:44:04;96345.72;;;-0.08;80.32
52923;BME280;38796;42.702;23.306;2023-02-12T08:46:04;96343.69;;;0.04;80.06
52923;BME280;38796;42.702;23.306;2023-02-12T08:48:03;96344.72;;;-0.02;79.65
52923;BME280;38796;42.702;23.306;2023-02-12T08:50:02;96346.78;;;-0.13;80.22
52923;BME280;38796;42.702;23.306;2023-02-12T08:52:00;96352.97;;;-0.19;80.55
52923;BME280;38796;42.702;23.306;2023-02-12T08:54:00;96348.53;;;-0.15;80.69
52923;BME280;38796;42.702;23.306;2023-02-12T08:56:00;96354.84;;;0.06;79.91
52923;BME280;38796;42.702;23.306;2023-02-12T08:57:59;96353.53;;;0.22;79.13
52923;BME280;38796;42.702;23.306;2023-02-12T08:59:58;96357.34;;;0.38;78.18
52923;BME280;38796;42.702;23.306;2023-02-12T09:01:57;96356.50;;;0.38;78.26
52923;BME280;38796;42.702;23.306;2023-02-12T09:03:56;96361.91;;;0.30;78.73
52923;BME280;38796;42.702;23.306;2023-02-12T09:05:54;96374.69;;;0.36;78.85
52923;BME280;38796;42.702;23.306;2023-02-12T09:07:53;96365.03;;;0.41;78.53
52923;BME280;38796;42.702;23.306;2023-02-12T09:09:51;96368.94;;;0.55;78.40
52923;BME280;38796;42.702;23.306;2023-02-12T09:11:51;96372.16;;;0.63;78.14
52923;BME280;38796;42.702;23.306;2023-02-12T09:13:49;96368.88;;;0.58;78.15
52923;BME280;38796;42.702;23.306;2023-02-12T09:15:48;96383.59;;;0.56;79.17
52923;BME280;38796;42.702;23.306;2023-02-12T09:17:46;96371.56;;;0.53;78.45
52923;BME280;38796;42.702;23.306;2023-02-12T09:19:44;96381.34;;;1.00;77.54
52923;BME280;38796;42.702;23.306;2023-02-12T09:21:42;96376.88;;;1.05;76.20
52923;BME280;38796;42.702;23.306;2023-02-12T09:23:42;96378.16;;;0.91;76.79
52923;BME280;38796;42.702;23.306;2023-02-12T09:25:42;96375.25;;;1.01;76.45
52923;BME280;38796;42.702;23.306;2023-02-12T09:27:42;96373.81;;;0.92;76.40
52923;BME280;38796;42.702;23.306;2023-02-12T09:29:40;96383.09;;;0.99;76.76
52923;BME280;38796;42.702;23.306;2023-02-12T09:31:38;96374.47;;;0.99;76.78
52923;BME280;38796;42.702;23.306;2023-02-12T09:33:37;96374.72;;;1.17;76.05
52923;BME280;38796;42.702;23.306;2023-02-12T09:35:35;96375.28;;;1.27;75.56
52923;BME280;38796;42.702;23.306;2023-02-12T09:37:33;96373.97;;;1.14;75.87
52923;BME280;38796;42.702;23.306;2023-02-12T09:39:31;96380.66;;;1.21;76.11
52923;BME280;38796;42.702;23.306;2023-02-12T09:44:24;96382.09;;;1.30;74.93
52923;BME280;38796;42.702;23.306;2023-02-12T09:46:29;96379.06;;;1.17;75.45
52923;BME280;38796;42.702;23.306;2023-02-12T09:48:42;96388.94;;;1.06;76.00
52923;BME280;38796;42.702;23.306;2023-02-12T09:50:48;96397.31;;;1.14;75.88
52923;BME280;38796;42.702;23.306;2023-02-12T09:52:50;96396.63;;;1.09;76.00
52923;BME280;38796;42.702;23.306;2023-02-12T09:54:49;96401.06;;;1.05;76.71
52923;BME280;38796;42.702;23.306;2023-02-12T09:56:51;96395.81;;;1.07;76.02
52923;BME280;38796;42.702;23.306;2023-02-12T09:58:52;96402.41;;;1.17;75.82
52923;BME280;38796;42.702;23.306;2023-02-12T10:00:55;96400.81;;;1.13;75.24
52923;BME280;38796;42.702;23.306;2023-02-12T10:02:54;96401.88;;;1.34;75.21
52923;BME280;38796;42.702;23.306;2023-02-12T10:04:53;96408.19;;;1.52;74.59
52923;BME280;38796;42.702;23.306;2023-02-12T10:07:02;96404.59;;;1.56;74.08
52923;BME280;38796;42.702;23.306;2023-02-12T10:09:28;96395.69;;;1.63;74.06
52923;BME280;38796;42.702;23.306;2023-02-12T10:11:45;96391.00;;;1.73;73.79
52923;BME280;38796;42.702;23.306;2023-02-12T10:13:55;96398.38;;;2.10;72.67
52923;BME280;38796;42.702;23.306;2023-02-12T10:16:09;96397.72;;;2.27;71.72
52923;BME280;38796;42.702;23.306;2023-02-12T10:18:33;96385.38;;;2.10;71.83
52923;BME280;38796;42.702;23.306;2023-02-12T10:20:51;96403.59;;;2.08;71.96
52923;BME280;38796;42.702;23.306;2023-02-12T10:23:02;96396.09;;;2.01;72.34
52923;BME280;38796;42.702;23.306;2023-02-12T10:25:13;96384.97;;;2.21;72.02
52923;BME280;38796;42.702;23.306;2023-02-12T10:27:22;96382.31;;;2.22;71.58
52923;BME280;38796;42.702;23.306;2023-02-12T10:29:25;96388.84;;;2.56;71.21
52923;BME280;38796;42.702;23.306;2023-02-12T10:31:29;96386.63;;;3.12;69.20
52923;BME280;38796;42.702;23.306;2023-02-12T10:33:33;96385.78;;;3.12;68.42
52923;BME280;38796;42.702;23.306;2023-02-12T10:35:35;96389.88;;;2.96;69.00
52923;BME280;38796;42.702;23.306;2023-02-12T10:37:36;96386.41;;;2.97;68.74
52923;BME280;38796;42.702;23.306;2023-02-12T10:39:41;96391.09;;;2.87;68.98